Time;durP1;ratioP1;P1;durP2;ratioP2;P2;SDS_P1;SDS_P2;PMS_P1;PMS_P2;Temp;Humidity;BMP_temperature;BMP_pressure;BME280_temperature;BME280_humidity;BME280_pressure;Samples;Min_cycle;Max_cycle;Signal;HPM_P1;HPM_P2
2023/02/17 00:00:20;;;;;;;0.47;0.47;;;;;;;10.63;100.00;101163.53;5015493;28;20472;-88
2023/02/17 00:02:45;;;;;;;0.73;0.60;;;;;;;10.59;100.00;101148.75;4983038;28;20121;-92
2023/02/17 00:05:14;;;;;;;0.50;0.50;;;;;;;10.57;100.00;101141.69;5014820;28;20040;-87
2023/02/17 00:07:40;;;;;;;0.50;0.50;;;;;;;10.60;100.00;101155.81;4982727;28;20042;-87
2023/02/17 00:10:06;;;;;;;0.40;0.40;;;;;;;10.52;100.00;101144.03;5015491;28;20036;-87
2023/02/17 00:12:32;;;;;;;0.50;0.50;;;;;;;10.47;100.00;101143.69;5015607;28;20026;-84
2023/02/17 00:15:01;;;;;;;0.50;0.50;;;;;;;10.49;100.00;101140.84;4998025;28;20038;-85
2023/02/17 00:17:27;;;;;;;0.50;0.50;;;;;;;10.37;100.00;101129.53;4994264;28;20046;-85
2023/02/17 00:19:54;;;;;;;0.50;0.50;;;;;;;10.40;100.00;101123.00;4999093;28;20021;-85
2023/02/17 00:22:20;;;;;;;0.50;0.50;;;;;;;10.48;100.00;101153.44;5014681;28;20033;-87
2023/02/17 00:24:51;;;;;;;0.60;0.60;;;;;;;10.44;100.00;101138.63;4999124;28;20360;-87
2023/02/17 00:27:18;;;;;;;2.58;0.70;;;;;;;10.38;100.00;101133.94;4983088;28;20386;-85
2023/02/17 00:29:44;;;;;;;0.57;0.50;;;;;;;10.42;100.00;101142.50;5014592;28;20088;-84
2023/02/17 00:32:10;;;;;;;0.75;0.50;;;;;;;10.38;100.00;101131.25;4999086;28;20041;-87
2023/02/17 00:34:39;;;;;;;0.63;0.60;;;;;;;10.36;100.00;101132.41;4998621;28;20530;-86
2023/02/17 00:37:04;;;;;;;0.63;0.60;;;;;;;10.36;100.00;101135.09;5015420;28;20037;-85
2023/02/17 00:39:30;;;;;;;0.40;0.40;;;;;;;10.39;100.00;101148.22;5015174;28;20037;-85
2023/02/17 00:41:55;;;;;;;0.50;0.50;;;;;;;10.34;100.00;101146.00;5014559;28;20042;-86
2023/02/17 00:44:23;;;;;;;0.57;0.55;;;;;;;10.45;100.00;101145.72;5015759;28;20072;-85
2023/02/17 00:46:48;;;;;;;0.50;0.50;;;;;;;10.52;100.00;101159.31;5014066;28;20109;-86
2023/02/17 00:49:23;;;;;;;0.50;0.50;;;;;;;10.48;100.00;101150.75;5014988;28;20136;-85
2023/02/17 00:51:49;;;;;;;0.68;0.60;;;;;;;10.52;100.00;101145.88;5015055;28;20045;-86
2023/02/17 00:54:16;;;;;;;0.75;0.50;;;;;;;10.52;100.00;101149.41;5013916;28;20030;-86
2023/02/17 00:56:42;;;;;;;0.50;0.50;;;;;;;10.52;100.00;101144.03;5014795;28;20029;-87
2023/02/17 00:59:11;;;;;;;0.40;0.40;;;;;;;10.53;100.00;101144.88;4998117;28;20045;-82
2023/02/17 01:01:37;;;;;;;0.40;0.40;;;;;;;10.55;100.00;101156.31;4998336;28;20099;-84
2023/02/17 01:04:03;;;;;;;0.52;0.52;;;;;;;10.57;100.00;101154.28;5014387;28;20041;-88
2023/02/17 01:06:33;;;;;;;0.50;0.50;;;;;;;10.57;100.00;101147.06;4996849;28;20411;-84
2023/02/17 01:08:59;;;;;;;0.60;0.60;;;;;;;10.60;100.00;101153.94;4981693;28;20497;-85
2023/02/17 01:11:28;;;;;;;0.40;0.40;;;;;;;10.54;100.00;101122.38;5014587;28;20061;-85
2023/02/17 01:13:57;;;;;;;0.60;0.57;;;;;;;10.58;100.00;101129.06;5013669;28;20037;-87
2023/02/17 01:16:29;;;;;;;0.40;0.40;;;;;;;10.64;100.00;101132.94;4981967;28;20044;-85
2023/02/17 01:18:55;;;;;;;1.23;0.70;;;;;;;10.63;100.00;101142.84;4981175;28;20173;-89
2023/02/17 01:21:23;;;;;;;1.63;0.60;;;;;;;10.64;100.00;101122.19;5014260;28;20502;-85
2023/02/17 01:23:50;;;;;;;0.50;0.50;;;;;;;10.66;100.00;101139.00;4998064;28;20037;-88
2023/02/17 01:26:21;;;;;;;1.13;0.57;;;;;;;10.62;100.00;101130.44;4997124;28;20041;-89
2023/02/17 01:28:51;;;;;;;0.40;0.40;;;;;;;10.66;100.00;101139.00;4998252;28;20435;-86
2023/02/17 01:31:17;;;;;;;0.60;0.60;;;;;;;10.56;100.00;101106.91;4996852;28;20472;-86
2023/02/17 01:33:43;;;;;;;0.40;0.40;;;;;;;10.65;100.00;101135.47;4981787;28;20119;-86
2023/02/17 01:36:14;;;;;;;0.40;0.40;;;;;;;10.55;100.00;101119.50;5013800;28;20464;-85
2023/02/17 01:38:45;;;;;;;0.60;0.60;;;;;;;10.59;100.00;101127.25;4982165;28;20044;-85
2023/02/17 01:41:16;;;;;;;0.50;0.50;;;;;;;10.65;100.00;101131.94;4998233;28;20096;-84
2023/02/17 01:43:42;;;;;;;0.50;0.50;;;;;;;10.70;100.00;101125.06;4997428;28;20044;-85
2023/02/17 01:46:08;;;;;;;0.60;0.60;;;;;;;10.70;100.00;101135.81;5015045;28;20113;-86
2023/02/17 01:48:51;;;;;;;0.40;0.40;;;;;;;10.67;100.00;101122.72;5013664;28;20042;-85
2023/02/17 01:51:21;;;;;;;;;;;;;;;10.70;100.00;101114.31;5013803;28;20037;-85
2023/02/17 01:53:56;;;;;;;0.60;0.60;;;;;;;10.69;100.00;101101.00;4981362;28;19952;-86
2023/02/17 01:56:23;;;;;;;0.50;0.50;;;;;;;10.71;100.00;101089.06;4997233;28;20038;-83
2023/02/17 01:59:09;;;;;;;0.40;0.40;;;;;;;10.56;100.00;101059.34;4996706;28;20084;-84
2023/02/17 02:01:35;;;;;;;1.33;0.63;;;;;;;10.68;100.00;101096.66;4997683;28;20489;-84
2023/02/17 02:04:03;;;;;;;0.65;0.50;;;;;;;10.75;100.00;101101.19;5012806;28;20033;-86
2023/02/17 02:06:30;;;;;;;0.40;0.40;;;;;;;10.76;100.00;101094.78;5013704;28;20447;-84
2023/02/17 02:09:05;;;;;;;2.10;0.80;;;;;;;10.68;100.00;101080.50;4996815;28;20026;-87
2023/02/17 02:11:31;;;;;;;1.55;0.65;;;;;;;10.75;100.00;101103.03;4996822;28;20042;-84
2023/02/17 02:13:57;;;;;;;1.33;0.60;;;;;;;10.79;100.00;101080.16;5013346;28;20044;-85
2023/02/17 02:16:31;;;;;;;0.52;0.52;;;;;;;10.66;100.00;101102.19;5013313;28;20372;-85
2023/02/17 02:19:27;;;;;;;0.50;0.50;;;;;;;10.72;100.00;101112.28;5013617;28;20460;-86
2023/02/17 02:22:03;;;;;;;0.50;0.50;;;;;;;10.71;100.00;101094.44;5014320;28;20030;-85
2023/02/17 02:24:50;;;;;;;0.50;0.50;;;;;;;10.77;100.00;101099.19;5013933;28;20040;-86
2023/02/17 02:28:00;;;;;;;1.95;0.93;;;;;;;10.76;100.00;101104.72;5013869;28;20025;-87
2023/02/17 02:30:42;;;;;;;0.50;0.50;;;;;;;10.71;100.00;101078.31;4962412;28;20038;-85
2023/02/17 02:33:17;;;;;;;3.10;0.60;;;;;;;10.68;100.00;101083.19;5012086;28;20034;-85
2023/02/17 02:36:11;;;;;;;0.50;0.50;;;;;;;10.74;100.00;101104.03;5014415;28;20160;-89
2023/02/17 02:38:56;;;;;;;0.65;0.52;;;;;;;10.75;100.00;101108.44;5011641;28;20080;-85
2023/02/17 02:41:45;;;;;;;0.82;0.50;;;;;;;10.76;100.00;101118.16;5014222;28;20044;-87
2023/02/17 02:44:13;;;;;;;0.52;0.52;;;;;;;10.74;100.00;101112.97;5012357;28;20044;-85
2023/02/17 02:46:42;;;;;;;0.60;0.60;;;;;;;10.74;100.00;101114.78;4980676;28;20033;-85
2023/02/17 02:49:07;;;;;;;0.50;0.50;;;;;;;10.77;100.00;101133.31;5013432;28;20444;-86
2023/02/17 02:51:42;;;;;;;0.40;0.40;;;;;;;10.81;100.00;101129.25;4997790;28;20049;-87
2023/02/17 02:54:08;;;;;;;1.23;0.52;;;;;;;10.77;100.00;101133.31;5014145;28;20030;-84
2023/02/17 02:56:57;;;;;;;0.50;0.50;;;;;;;10.75;100.00;101135.31;5014392;28;20099;-86
2023/02/17 02:59:44;;;;;;;0.50;0.50;;;;;;;10.62;100.00;101116.16;5012849;28;20022;-84
2023/02/17 03:02:21;;;;;;;1.55;0.60;;;;;;;10.73;100.00;101140.03;5012942;28;20042;-85
2023/02/17 03:05:03;;;;;;;0.40;0.40;;;;;;;10.72;100.00;101133.81;4996623;28;20084;-88
2023/02/17 03:07:45;;;;;;;0.40;0.40;;;;;;;10.68;100.00;101132.44;5012922;28;20069;-87
2023/02/17 03:10:12;;;;;;;0.40;0.40;;;;;;;10.70;100.00;101133.13;4996567;28;20116;-87
2023/02/17 03:12:41;;;;;;;0.50;0.50;;;;;;;10.70;100.00;101132.28;4996821;28;20033;-87
2023/02/17 03:15:29;;;;;;;0.50;0.50;;;;;;;10.69;100.00;101139.53;5016217;28;20044;-87
2023/02/17 03:17:59;;;;;;;4.10;0.70;;;;;;;10.71;100.00;101142.88;4996278;28;20507;-87
2023/02/17 03:20:27;;;;;;;0.40;0.40;;;;;;;10.74;100.00;101139.00;5012823;28;20468;-87
2023/02/17 03:22:55;;;;;;;0.40;0.40;;;;;;;10.75;100.00;101132.63;5012650;28;20033;-89
2023/02/17 03:25:21;;;;;;;0.50;0.50;;;;;;;10.72;100.00;101127.59;4996173;28;20065;-87
2023/02/17 03:27:46;;;;;;;0.43;0.43;;;;;;;10.80;100.00;101132.97;5013665;28;20088;-87
2023/02/17 03:30:13;;;;;;;0.50;0.50;;;;;;;10.76;100.00;101123.53;5012247;28;20042;-86
2023/02/17 03:32:39;;;;;;;0.40;0.40;;;;;;;10.78;100.00;101140.34;4995215;28;20499;-87
2023/02/17 03:35:08;;;;;;;0.40;0.40;;;;;;;10.82;100.00;101144.38;5012240;28;20026;-86
2023/02/17 03:37:34;;;;;;;0.60;0.60;;;;;;;10.75;100.00;101127.25;5012687;28;20083;-87
2023/02/17 03:40:00;;;;;;;0.40;0.40;;;;;;;10.86;100.00;101137.66;5011667;28;20038;-86
2023/02/17 03:42:28;;;;;;;0.40;0.40;;;;;;;10.78;100.00;101126.91;4996068;28;20547;-86
2023/02/17 03:44:57;;;;;;;1.27;0.43;;;;;;;10.88;100.00;101135.66;4995472;28;20087;-87
2023/02/17 03:47:22;;;;;;;0.50;0.50;;;;;;;10.79;100.00;101128.56;5011967;28;20117;-88
2023/02/17 03:49:48;;;;;;;0.50;0.50;;;;;;;10.90;100.00;101155.16;5013889;28;20109;-88
2023/02/17 03:52:13;;;;;;;0.40;0.40;;;;;;;10.96;100.00;101126.75;5015617;28;20107;-85
2023/02/17 03:54:42;;;;;;;0.50;0.50;;;;;;;10.94;100.00;101153.81;5032213;28;20430;-88
2023/02/17 03:57:08;;;;;;;0.40;0.40;;;;;;;10.98;100.00;101163.22;4999717;28;20369;-87
2023/02/17 03:59:33;;;;;;;0.50;0.50;;;;;;;10.91;100.00;101143.38;4998933;28;20491;-85
2023/02/17 04:01:59;;;;;;;0.40;0.40;;;;;;;10.95;100.00;101143.88;5015609;28;20129;-86
2023/02/17 04:04:25;;;;;;;0.40;0.40;;;;;;;11.01;100.00;101140.53;5016166;28;20512;-85
2023/02/17 04:06:51;;;;;;;0.40;0.40;;;;;;;10.95;100.00;101141.19;5015559;28;20117;-84
2023/02/17 04:09:16;;;;;;;0.50;0.50;;;;;;;10.92;100.00;101149.59;5015574;28;20101;-86
2023/02/17 04:11:42;;;;;;;0.50;0.50;;;;;;;10.89;100.00;101145.41;4998601;28;20056;-87
2023/02/17 04:14:08;;;;;;;0.40;0.40;;;;;;;11.00;100.00;101168.44;5015705;28;20385;-89
2023/02/17 04:16:34;;;;;;;0.50;0.50;;;;;;;10.92;100.00;101155.81;4998931;28;20117;-86
2023/02/17 04:19:00;;;;;;;0.40;0.40;;;;;;;10.95;100.00;101168.09;5015235;28;20452;-86
2023/02/17 04:21:26;;;;;;;0.40;0.40;;;;;;;10.98;100.00;101176.69;5016694;28;20073;-86
2023/02/17 04:23:53;;;;;;;0.50;0.50;;;;;;;10.96;100.00;101181.38;5015793;28;20472;-86
2023/02/17 04:26:19;;;;;;;0.40;0.40;;;;;;;10.98;100.00;101187.44;5015381;28;20037;-86
2023/02/17 04:28:45;;;;;;;0.45;0.45;;;;;;;10.98;100.00;101191.97;5015048;28;20038;-86
2023/02/17 04:31:13;;;;;;;0.40;0.40;;;;;;;10.92;100.00;101182.72;4998619;28;20045;-85
2023/02/17 04:33:39;;;;;;;0.40;0.40;;;;;;;10.97;100.00;101184.91;5015425;28;20491;-85
2023/02/17 04:36:04;;;;;;;0.40;0.40;;;;;;;10.99;100.00;101196.34;5031288;28;20022;-84
2023/02/17 04:38:31;;;;;;;0.40;0.40;;;;;;;10.94;100.00;101188.78;5015585;28;20037;-86
2023/02/17 04:40:58;;;;;;;1.98;0.50;;;;;;;11.00;100.00;101198.88;5014967;28;20032;-85
2023/02/17 04:43:27;;;;;;;0.50;0.50;;;;;;;10.95;100.00;101213.84;4982544;28;20030;-85
2023/02/17 04:45:53;;;;;;;0.50;0.50;;;;;;;10.95;100.00;101197.69;4982173;28;20034;-86
2023/02/17 04:48:19;;;;;;;0.40;0.40;;;;;;;10.94;100.00;101223.75;5014872;28;20029;-86
2023/02/17 04:50:47;;;;;;;0.40;0.40;;;;;;;10.93;100.00;101216.72;5015384;28;20033;-87
2023/02/17 04:53:16;;;;;;;0.50;0.50;;;;;;;10.94;100.00;101210.31;5014791;28;20416;-87
2023/02/17 04:55:48;;;;;;;0.40;0.40;;;;;;;10.97;100.00;101217.19;5015881;28;20053;-86
2023/02/17 04:58:16;;;;;;;0.40;0.40;;;;;;;10.84;100.00;101189.97;5014106;28;20033;-84
2023/02/17 05:00:42;;;;;;;0.40;0.40;;;;;;;10.95;100.00;101216.53;4998187;28;20438;-86
2023/02/17 05:03:08;;;;;;;0.40;0.40;;;;;;;10.98;100.00;101217.06;5014229;28;20114;-86
2023/02/17 05:05:37;;;;;;;0.40;0.40;;;;;;;10.99;100.00;101215.19;5015624;28;20168;-85
2023/02/17 05:08:05;;;;;;;0.40;0.40;;;;;;;10.98;100.00;101225.13;4998217;28;20052;-86
2023/02/17 05:10:33;;;;;;;0.40;0.40;;;;;;;10.97;100.00;101206.44;4997706;28;20038;-87
2023/02/17 05:12:59;;;;;;;0.50;0.50;;;;;;;10.96;100.00;101204.78;4998082;28;20026;-85
2023/02/17 05:15:25;;;;;;;0.40;0.40;;;;;;;11.00;100.00;101225.78;5015381;28;20029;-85
2023/02/17 05:17:52;;;;;;;0.50;0.50;;;;;;;11.01;100.00;101240.09;5013995;28;20038;-85
2023/02/17 05:20:20;;;;;;;1.45;0.50;;;;;;;11.00;100.00;101230.31;5013827;28;20042;-86
2023/02/17 05:22:46;;;;;;;0.40;0.40;;;;;;;11.00;100.00;101241.91;4997742;28;20116;-89
2023/02/17 05:25:11;;;;;;;0.50;0.50;;;;;;;10.99;100.00;101237.56;5013203;28;20113;-85
2023/02/17 05:27:37;;;;;;;0.40;0.40;;;;;;;10.98;100.00;101238.56;5015045;28;20021;-85
2023/02/17 05:30:09;;;;;;;0.40;0.40;;;;;;;10.98;100.00;101243.09;4997674;28;20050;-87
2023/02/17 05:32:34;;;;;;;0.50;0.50;;;;;;;10.96;100.00;101232.50;4982647;28;20037;-85
2023/02/17 05:35:00;;;;;;;0.40;0.40;;;;;;;10.85;100.00;101229.28;4997591;28;20353;-85
2023/02/17 05:37:26;;;;;;;0.40;0.40;;;;;;;10.91;100.00;101240.25;5014034;28;20034;-86
2023/02/17 05:39:52;;;;;;;0.45;0.45;;;;;;;10.90;100.00;101237.69;5014226;28;20037;-88
2023/02/17 05:42:18;;;;;;;0.50;0.50;;;;;;;10.78;100.00;101167.25;4997161;28;20132;-90
2023/02/17 05:44:51;;;;;;;0.50;0.50;;;;;;;10.82;100.00;101224.25;5013680;28;20109;-86
2023/02/17 05:47:17;;;;;;;;;;;;;;;10.83;100.00;101232.16;5014772;28;20022;-84
2023/02/17 05:49:42;;;;;;;0.40;0.40;;;;;;;10.82;100.00;101235.84;5015196;28;20386;-86
2023/02/17 05:52:08;;;;;;;0.50;0.50;;;;;;;10.76;100.00;101228.44;4998568;28;20088;-86
2023/02/17 05:54:33;;;;;;;0.50;0.50;;;;;;;10.79;100.00;101236.19;5014841;28;20163;-85
2023/02/17 05:56:59;;;;;;;0.57;0.50;;;;;;;10.78;100.00;101218.38;4996505;28;20037;-88
2023/02/17 05:59:25;;;;;;;0.55;0.55;;;;;;;10.77;100.00;101232.84;5013727;28;20034;-86
2023/02/17 06:01:53;;;;;;;0.40;0.40;;;;;;;10.70;100.00;101229.13;5012522;28;20026;-84
2023/02/17 06:04:18;;;;;;;0.50;0.50;;;;;;;10.67;100.00;101222.22;5013222;28;20033;-87
2023/02/17 06:06:47;;;;;;;0.50;0.50;;;;;;;10.73;100.00;101234.16;5013277;28;20046;-85
2023/02/17 06:09:13;;;;;;;0.45;0.45;;;;;;;10.72;100.00;101235.19;5008104;28;20041;-87
2023/02/17 06:11:38;;;;;;;0.50;0.50;;;;;;;10.71;100.00;101249.59;5013376;28;20026;-86
2023/02/17 06:14:04;;;;;;;0.40;0.40;;;;;;;10.73;100.00;101244.91;5011337;28;20091;-86
2023/02/17 06:16:32;;;;;;;1.30;0.60;;;;;;;10.72;100.00;101179.53;5013270;28;20060;-86
2023/02/17 06:19:01;;;;;;;2.85;0.45;;;;;;;10.68;100.00;101247.25;4996632;28;20069;-86
2023/02/17 06:21:29;;;;;;;11.35;1.05;;;;;;;10.59;100.00;101248.25;4997140;28;20045;-84
2023/02/17 06:23:57;;;;;;;0.40;0.40;;;;;;;10.52;100.00;101238.13;5012814;28;20026;-86
2023/02/17 06:26:23;;;;;;;0.75;0.50;;;;;;;10.65;100.00;101269.09;5013622;28;20026;-89
2023/02/17 06:28:49;;;;;;;0.50;0.50;;;;;;;10.61;100.00;101255.16;4979925;28;20030;-85
2023/02/17 06:31:17;;;;;;;0.40;0.40;;;;;;;10.63;100.00;101265.72;5013085;28;20036;-86
2023/02/17 06:33:43;;;;;;;0.40;0.40;;;;;;;10.61;100.00;101252.47;5012172;28;20034;-85
2023/02/17 06:36:09;;;;;;;0.50;0.50;;;;;;;10.64;100.00;101248.56;5012930;28;20510;-87
2023/02/17 06:38:35;;;;;;;0.90;0.50;;;;;;;10.62;100.00;101258.69;5013804;28;20030;-85
2023/02/17 06:41:00;;;;;;;0.57;0.43;;;;;;;10.63;100.00;101260.34;5011939;28;20026;-86
2023/02/17 06:43:26;;;;;;;1.25;0.50;;;;;;;10.61;100.00;101256.97;5011878;28;20088;-88
2023/02/17 06:45:53;;;;;;;0.50;0.50;;;;;;;10.55;100.00;101245.88;5012632;28;20052;-87
2023/02/17 06:48:19;;;;;;;0.40;0.40;;;;;;;10.59;100.00;101256.31;4980047;28;20036;-86
2023/02/17 06:50:45;;;;;;;0.43;0.43;;;;;;;10.50;100.00;101242.81;5012817;28;20026;-86
2023/02/17 06:54:09;;;;;;;0.50;0.50;;;;;;;10.52;100.00;101245.38;5011939;28;20065;-89
2023/02/17 06:56:35;;;;;;;1.35;0.70;;;;;;;10.31;100.00;101210.84;5000755;28;20040;-86
2023/02/17 06:59:02;;;;;;;0.40;0.40;;;;;;;10.44;100.00;101261.47;4996165;28;20132;-86
2023/02/17 07:01:31;;;;;;;0.40;0.40;;;;;;;10.43;100.00;101282.16;5012282;28;20539;-88
2023/02/17 07:03:57;;;;;;;0.40;0.40;;;;;;;10.26;100.00;101250.78;5011661;28;20058;-84
2023/02/17 07:06:23;;;;;;;0.45;0.45;;;;;;;10.20;100.00;101254.13;4995979;28;20432;-85
2023/02/17 07:08:52;;;;;;;1.17;1.15;;;;;;;10.26;100.00;101261.53;4979768;28;20042;-88
2023/02/17 07:11:18;;;;;;;1.27;0.65;;;;;;;10.21;100.00;101277.28;5011627;28;20038;-86
2023/02/17 07:13:44;;;;;;;0.40;0.40;;;;;;;10.10;100.00;101281.09;4995549;28;20439;-87
2023/02/17 07:16:11;;;;;;;0.68;0.68;;;;;;;10.10;100.00;101283.78;5011543;28;20030;-87
2023/02/17 07:18:39;;;;;;;2.17;1.00;;;;;;;9.88;100.00;101269.91;4995849;28;20038;-85
2023/02/17 07:21:07;;;;;;;0.50;0.50;;;;;;;10.03;100.00;101315.84;5011985;28;20045;-85
2023/02/17 07:23:35;;;;;;;0.90;0.90;;;;;;;9.88;100.00;101295.94;5014981;28;20030;-87
2023/02/17 07:26:14;;;;;;;0.43;0.43;;;;;;;9.89;100.00;101298.44;5018160;28;20455;-89
2023/02/17 07:28:40;;;;;;;0.45;0.45;;;;;;;9.83;100.00;101309.00;5017440;28;20034;-84
2023/02/17 07:31:08;;;;;;;0.40;0.40;;;;;;;10.01;100.00;101339.34;5018229;28;20040;-87
2023/02/17 07:33:34;;;;;;;0.52;0.52;;;;;;;9.81;100.00;101306.44;5017165;28;20022;-87
2023/02/17 07:36:12;;;;;;;7.97;1.52;;;;;;;9.84;100.00;101321.41;5015997;28;20524;-85
2023/02/17 07:38:41;;;;;;;5.05;0.70;;;;;;;9.92;100.00;101329.50;4983768;28;20038;-87
2023/02/17 07:41:11;;;;;;;0.60;0.60;;;;;;;9.71;100.00;101321.81;4978177;28;20034;-88
2023/02/17 07:43:37;;;;;;;0.50;0.50;;;;;;;9.87;100.00;101350.63;4999822;28;20034;-89
2023/02/17 07:46:04;;;;;;;0.40;0.40;;;;;;;9.79;100.00;101348.75;5015754;28;20037;-86
2023/02/17 07:48:32;;;;;;;0.60;0.60;;;;;;;9.75;100.00;101339.31;4999383;28;20029;-87
2023/02/17 07:51:05;;;;;;;0.55;0.55;;;;;;;9.78;100.00;101348.91;5015739;28;20096;-85
2023/02/17 07:53:31;;;;;;;0.93;0.93;;;;;;;9.79;100.00;101351.44;5017037;28;20034;-87
2023/02/17 07:55:57;;;;;;;8.57;1.08;;;;;;;9.80;100.00;101360.34;5015688;28;20084;-79
2023/02/17 07:58:22;;;;;;;0.43;0.43;;;;;;;9.88;100.00;101360.41;5014177;28;20042;-79
2023/02/17 08:00:48;;;;;;;0.40;0.40;;;;;;;9.96;100.00;101365.81;4999332;28;20034;-77
2023/02/17 08:03:17;;;;;;;0.40;0.40;;;;;;;10.01;100.00;101385.00;5015164;28;20084;-77
2023/02/17 08:05:42;;;;;;;0.52;0.52;;;;;;;10.04;100.00;101387.38;4999451;28;20037;-78
2023/02/17 08:13:36;;;;;;;0.47;0.47;;;;;;;10.12;100.00;101375.84;5015682;28;20084;-78
2023/02/17 08:16:02;;;;;;;0.40;0.40;;;;;;;10.13;100.00;101378.38;4999798;28;20049;-79
2023/02/17 08:18:28;;;;;;;0.40;0.40;;;;;;;10.12;100.00;101375.84;4999299;28;20068;-77
2023/02/17 08:20:53;;;;;;;0.40;0.40;;;;;;;10.07;100.00;101368.25;4998792;28;20030;-79
2023/02/17 08:23:19;;;;;;;0.40;0.40;;;;;;;10.20;100.00;101385.81;5015447;28;20064;-77
2023/02/17 08:25:50;;;;;;;0.40;0.40;;;;;;;10.19;100.00;101394.84;5015315;28;20105;-79
2023/02/17 08:28:16;;;;;;;0.43;0.43;;;;;;;10.24;100.00;101393.41;4998671;28;20026;-77
2023/02/17 08:30:42;;;;;;;0.40;0.40;;;;;;;10.26;100.00;101399.44;5014910;28;20373;-79
2023/02/17 08:33:07;;;;;;;0.40;0.40;;;;;;;10.25;100.00;101402.31;5014871;28;20033;-77
2023/02/17 08:35:33;;;;;;;2.20;0.50;;;;;;;10.26;100.00;101403.97;5014332;28;20034;-78
2023/02/17 08:37:58;;;;;;;0.47;0.47;;;;;;;10.29;100.00;101415.31;5015383;28;20388;-77
2023/02/17 08:40:24;;;;;;;1.08;0.70;;;;;;;10.23;100.00;101397.06;4998689;28;20030;-78
2023/02/17 08:42:50;;;;;;;0.40;0.40;;;;;;;10.31;100.00;101412.44;4998638;28;20041;-78
2023/02/17 08:45:17;;;;;;;2.75;0.60;;;;;;;10.30;100.00;101410.78;5014881;28;20389;-77
2023/02/17 08:47:45;;;;;;;0.50;0.50;;;;;;;10.31;100.00;101420.50;5014668;28;20376;-81
2023/02/17 08:50:14;;;;;;;0.70;0.70;;;;;;;10.30;100.00;101414.28;5014846;28;20388;-79
2023/02/17 08:52:40;;;;;;;0.40;0.40;;;;;;;10.33;100.00;101413.13;5014856;28;20069;-80
2023/02/17 08:55:06;;;;;;;0.40;0.40;;;;;;;10.38;100.00;101420.72;4998498;28;20065;-78
2023/02/17 08:57:34;;;;;;;0.50;0.50;;;;;;;10.36;100.00;101433.47;4998361;28;20479;-78
2023/02/17 09:00:00;;;;;;;0.50;0.50;;;;;;;10.41;100.00;101440.06;4998158;28;20038;-77
2023/02/17 09:02:29;;;;;;;0.50;0.50;;;;;;;10.47;100.00;101452.03;5015307;28;20033;-79
2023/02/17 09:04:55;;;;;;;0.73;0.50;;;;;;;10.54;100.00;101445.88;5014101;28;20045;-80
2023/02/17 09:07:21;;;;;;;0.40;0.40;;;;;;;10.54;100.00;101436.97;5013976;28;20034;-79
2023/02/17 09:09:47;;;;;;;0.50;0.50;;;;;;;10.64;100.00;101451.16;5014303;28;20129;-80
2023/02/17 09:12:19;;;;;;;0.50;0.50;;;;;;;10.83;100.00;101458.13;4982099;28;20133;-80
2023/02/17 09:14:45;;;;;;;0.40;0.40;;;;;;;11.04;100.00;101454.19;5015150;28;20030;-79
2023/02/17 09:17:10;;;;;;;0.50;0.50;;;;;;;11.16;100.00;101448.34;5014001;28;20103;-80
2023/02/17 09:19:39;;;;;;;0.50;0.50;;;;;;;11.38;100.00;101462.22;5013967;28;20404;-79
2023/02/17 09:22:05;;;;;;;0.40;0.40;;;;;;;11.51;100.00;101467.13;4998174;28;20448;-78
2023/02/17 09:24:33;;;;;;;0.50;0.50;;;;;;;11.59;100.00;101467.13;4997862;28;20076;-80
2023/02/17 09:27:03;;;;;;;0.40;0.40;;;;;;;11.66;100.00;101473.56;4998476;28;20034;-77
2023/02/17 09:29:29;;;;;;;0.47;0.47;;;;;;;11.73;100.00;101479.16;5014146;28;20487;-77
2023/02/17 09:31:54;;;;;;;0.40;0.40;;;;;;;11.81;100.00;101480.00;4997923;28;20033;-78
2023/02/17 09:34:20;;;;;;;0.40;0.40;;;;;;;11.80;100.00;101483.72;5013849;28;20511;-77
2023/02/17 09:36:46;;;;;;;0.40;0.40;;;;;;;11.68;100.00;101474.25;5013590;28;20431;-79
2023/02/17 09:39:12;;;;;;;0.50;0.50;;;;;;;11.57;100.00;101464.63;4997321;28;20090;-78
2023/02/17 09:41:46;;;;;;;0.40;0.40;;;;;;;11.58;100.00;101468.16;5013707;28;20539;-78
2023/02/17 09:44:24;;;;;;;0.40;0.40;;;;;;;11.74;100.00;101483.50;5013577;28;20038;-79
2023/02/17 09:46:56;;;;;;;0.50;0.50;;;;;;;11.82;100.00;101478.13;5012794;28;20091;-78
2023/02/17 09:49:25;;;;;;;0.40;0.40;;;;;;;11.81;100.00;101479.16;5011530;28;20113;-77
2023/02/17 09:52:00;;;;;;;0.40;0.40;;;;;;;11.93;100.00;101482.38;4997309;28;20022;-78
2023/02/17 09:54:33;;;;;;;0.40;0.40;;;;;;;11.95;100.00;101480.38;4997309;28;20088;-78
2023/02/17 09:57:00;;;;;;;0.40;0.40;;;;;;;11.90;100.00;101480.03;5012465;28;20383;-78
2023/02/17 09:59:31;;;;;;;0.40;0.40;;;;;;;11.86;100.00;101466.06;5014633;28;20033;-78
2023/02/17 10:01:57;;;;;;;0.50;0.50;;;;;;;12.03;100.00;101486.59;4997662;28;20092;-78
2023/02/17 10:04:29;;;;;;;0.50;0.50;;;;;;;12.14;100.00;101496.22;4997201;28;20388;-78
2023/02/17 10:07:06;;;;;;;0.40;0.40;;;;;;;12.44;100.00;101491.16;5013247;28;20053;-78
2023/02/17 10:09:39;;;;;;;0.40;0.40;;;;;;;12.63;100.00;101495.34;5013445;28;20072;-78
2023/02/17 10:12:08;;;;;;;;;;;;;;;12.72;100.00;101507.81;4998125;28;20042;-78
2023/02/17 10:14:40;;;;;;;0.40;0.40;;;;;;;12.73;100.00;101507.66;4997340;28;19921;-78
2023/02/17 10:17:17;;;;;;;0.50;0.50;;;;;;;12.96;100.00;101512.28;5013357;28;20478;-78
2023/02/17 10:20:03;;;;;;;0.40;0.40;;;;;;;13.11;100.00;101518.66;4980934;28;20038;-77
2023/02/17 10:22:30;;;;;;;0.65;0.65;;;;;;;12.90;100.00;101488.72;5013282;28;20034;-78
2023/02/17 10:24:56;;;;;;;0.50;0.50;;;;;;;13.00;100.00;101519.06;4996840;28;20033;-77
2023/02/17 10:27:27;;;;;;;0.40;0.40;;;;;;;12.96;100.00;101526.63;4996842;28;20037;-78
2023/02/17 10:30:02;;;;;;;0.63;0.63;;;;;;;12.97;100.00;101522.09;5013079;28;20118;-77
2023/02/17 10:32:29;;;;;;;0.50;0.50;;;;;;;13.02;100.00;101516.16;5013094;28;20392;-79
2023/02/17 10:35:16;;;;;;;1.38;1.02;;;;;;;13.16;100.00;101523.56;4996630;28;20038;-78
2023/02/17 10:37:48;;;;;;;2.60;0.80;;;;;;;13.26;100.00;101526.94;4996553;28;20034;-78
2023/02/17 10:40:22;;;;;;;34.05;4.20;;;;;;;13.30;100.00;101530.94;4996634;28;20038;-77
2023/02/17 10:42:51;;;;;;;4.65;1.95;;;;;;;13.34;100.00;101513.38;5012663;28;20392;-77
2023/02/17 10:45:23;;;;;;;6.35;1.50;;;;;;;13.68;100.00;101509.50;5012768;28;20044;-78
2023/02/17 10:47:59;;;;;;;2.53;1.38;;;;;;;14.20;100.00;101507.97;5029058;28;20528;-77
2023/02/17 10:50:25;;;;;;;14.38;2.65;;;;;;;15.15;100.00;101527.19;4981468;28;20042;-77
2023/02/17 10:52:52;;;;;;;9.85;1.35;;;;;;;15.75;100.00;101511.72;5011852;28;20080;-77
2023/02/17 10:55:33;;;;;;;14.95;3.10;;;;;;;16.58;100.00;101528.34;4996617;28;20030;-78
2023/02/17 10:58:21;;;;;;;15.30;3.20;;;;;;;16.63;100.00;101542.19;5012804;28;20042;-79
2023/02/17 11:00:52;;;;;;;21.45;4.00;;;;;;;15.94;100.00;101539.25;5012040;28;20412;-76
2023/02/17 11:03:28;;;;;;;25.65;3.08;;;;;;;15.35;100.00;101542.88;4996470;28;20040;-77
2023/02/17 11:06:05;;;;;;;27.00;4.97;;;;;;;14.95;100.00;101532.31;5012636;28;20030;-78
2023/02/17 11:08:32;;;;;;;28.88;4.70;;;;;;;14.87;100.00;101539.66;5012555;28;20034;-79
2023/02/17 11:11:22;;;;;;;33.90;3.63;;;;;;;14.87;100.00;101551.38;5012396;28;20034;-78
2023/02/17 11:14:13;;;;;;;24.60;4.43;;;;;;;14.67;100.00;101544.78;4980187;28;20777;-79
2023/02/17 11:16:43;;;;;;;26.25;3.28;;;;;;;14.47;100.00;101550.69;5012561;28;20607;-78
2023/02/17 11:19:27;;;;;;;25.48;4.47;;;;;;;14.49;100.00;101553.19;4980209;28;20037;-77
2023/02/17 11:21:55;;;;;;;31.83;4.57;;;;;;;14.48;100.00;101549.66;5013300;28;20033;-78
2023/02/17 11:24:21;;;;;;;44.15;5.65;;;;;;;14.50;100.00;101555.75;5028561;28;20429;-78
2023/02/17 11:27:07;;;;;;;40.58;5.72;;;;;;;14.65;100.00;101553.09;4996203;28;20033;-78
2023/02/17 11:29:36;;;;;;;31.15;4.32;;;;;;;15.07;100.00;101554.34;4996429;28;20510;-76
2023/02/17 11:32:09;;;;;;;24.90;5.15;;;;;;;15.21;100.00;101552.69;5012035;28;20038;-76